sensor_id;sensor_type;location;lat;lon;timestamp;P1;durP1;ratioP1;P2;durP2;ratioP2
20411;SDS011;10365;52.578;8.138;2022-07-15T00:00:38;6.63;;;2.65;;
20411;SDS011;10365;52.578;8.138;2022-07-15T00:03:04;6.32;;;2.70;;
20411;SDS011;10365;52.578;8.138;2022-07-15T00:05:29;8.45;;;2.78;;
20411;SDS011;10365;52.578;8.138;2022-07-15T00:07:55;11.32;;;3.22;;
20411;SDS011;10365;52.578;8.138;2022-07-15T00:10:23;9.65;;;3.30;;
20411;SDS011;10365;52.578;8.138;2022-07-15T00:12:50;7.03;;;3.05;;
20411;SDS011;10365;52.578;8.138;2022-07-15T00:15:16;5.75;;;2.75;;
20411;SDS011;10365;52.578;8.138;2022-07-15T00:17:42;5.28;;;2.65;;
20411;SDS011;10365;52.578;8.138;2022-07-15T00:20:09;9.32;;;3.35;;
20411;SDS011;10365;52.578;8.138;2022-07-15T00:22:35;8.40;;;3.60;;
20411;SDS011;10365;52.578;8.138;2022-07-15T00:25:00;10.50;;;3.33;;
20411;SDS011;10365;52.578;8.138;2022-07-15T00:27:26;11.45;;;3.60;;
20411;SDS011;10365;52.578;8.138;2022-07-15T00:29:51;7.72;;;3.15;;
20411;SDS011;10365;52.578;8.138;2022-07-15T00:32:17;9.93;;;3.55;;
20411;SDS011;10365;52.578;8.138;2022-07-15T00:34:43;9.88;;;3.72;;
20411;SDS011;10365;52.578;8.138;2022-07-15T00:37:08;12.63;;;4.38;;
20411;SDS011;10365;52.578;8.138;2022-07-15T00:39:34;11.13;;;3.70;;
20411;SDS011;10365;52.578;8.138;2022-07-15T00:41:59;11.15;;;3.53;;
20411;SDS011;10365;52.578;8.138;2022-07-15T00:44:25;10.05;;;4.03;;
20411;SDS011;10365;52.578;8.138;2022-07-15T00:46:53;12.95;;;4.68;;
20411;SDS011;10365;52.578;8.138;2022-07-15T00:49:18;9.48;;;4.10;;
20411;SDS011;10365;52.578;8.138;2022-07-15T00:51:50;13.13;;;4.20;;
20411;SDS011;10365;52.578;8.138;2022-07-15T00:54:16;15.95;;;4.35;;
20411;SDS011;10365;52.578;8.138;2022-07-15T00:56:46;10.07;;;4.05;;
20411;SDS011;10365;52.578;8.138;2022-07-15T00:59:12;11.07;;;4.57;;
20411;SDS011;10365;52.578;8.138;2022-07-15T01:01:38;7.60;;;3.67;;
20411;SDS011;10365;52.578;8.138;2022-07-15T01:04:05;11.13;;;4.45;;
20411;SDS011;10365;52.578;8.138;2022-07-15T01:06:31;12.32;;;4.10;;
20411;SDS011;10365;52.578;8.138;2022-07-15T01:08:56;13.85;;;4.43;;
20411;SDS011;10365;52.578;8.138;2022-07-15T01:11:22;15.85;;;4.70;;
20411;SDS011;10365;52.578;8.138;2022-07-15T01:13:49;11.88;;;4.22;;
20411;SDS011;10365;52.578;8.138;2022-07-15T01:16:15;9.23;;;3.88;;
20411;SDS011;10365;52.578;8.138;2022-07-15T01:18:40;7.00;;;3.60;;
20411;SDS011;10365;52.578;8.138;2022-07-15T01:21:07;9.63;;;4.18;;
20411;SDS011;10365;52.578;8.138;2022-07-15T01:23:33;9.70;;;3.90;;
20411;SDS011;10365;52.578;8.138;2022-07-15T01:26:06;10.38;;;4.00;;
20411;SDS011;10365;52.578;8.138;2022-07-15T01:28:32;11.73;;;4.95;;
20411;SDS011;10365;52.578;8.138;2022-07-15T01:30:58;12.90;;;3.90;;
20411;SDS011;10365;52.578;8.138;2022-07-15T01:33:27;17.27;;;4.55;;
20411;SDS011;10365;52.578;8.138;2022-07-15T01:35:56;8.98;;;4.47;;
20411;SDS011;10365;52.578;8.138;2022-07-15T01:38:22;12.18;;;4.82;;
20411;SDS011;10365;52.578;8.138;2022-07-15T01:40:55;13.70;;;4.82;;
20411;SDS011;10365;52.578;8.138;2022-07-15T01:43:21;13.95;;;5.43;;
20411;SDS011;10365;52.578;8.138;2022-07-15T01:45:46;15.32;;;5.22;;
20411;SDS011;10365;52.578;8.138;2022-07-15T01:48:17;14.00;;;4.85;;
20411;SDS011;10365;52.578;8.138;2022-07-15T01:51:27;13.65;;;4.85;;
20411;SDS011;10365;52.578;8.138;2022-07-15T01:53:52;17.67;;;5.10;;
20411;SDS011;10365;52.578;8.138;2022-07-15T01:56:18;12.40;;;4.88;;
20411;SDS011;10365;52.578;8.138;2022-07-15T01:58:43;17.55;;;4.88;;
20411;SDS011;10365;52.578;8.138;2022-07-15T02:01:10;14.20;;;5.00;;
20411;SDS011;10365;52.578;8.138;2022-07-15T02:03:36;12.52;;;4.35;;
20411;SDS011;10365;52.578;8.138;2022-07-15T02:06:01;11.07;;;4.53;;
20411;SDS011;10365;52.578;8.138;2022-07-15T02:08:27;12.80;;;4.50;;
20411;SDS011;10365;52.578;8.138;2022-07-15T02:10:53;10.27;;;4.15;;
20411;SDS011;10365;52.578;8.138;2022-07-15T02:13:18;11.65;;;4.70;;
20411;SDS011;10365;52.578;8.138;2022-07-15T02:15:53;11.57;;;4.28;;
20411;SDS011;10365;52.578;8.138;2022-07-15T02:18:18;14.07;;;4.03;;
20411;SDS011;10365;52.578;8.138;2022-07-15T02:20:44;12.93;;;4.25;;
20411;SDS011;10365;52.578;8.138;2022-07-15T02:23:11;13.75;;;3.60;;
20411;SDS011;10365;52.578;8.138;2022-07-15T02:25:38;14.23;;;4.28;;
20411;SDS011;10365;52.578;8.138;2022-07-15T02:28:04;12.50;;;3.25;;
20411;SDS011;10365;52.578;8.138;2022-07-15T02:30:34;15.65;;;3.58;;
20411;SDS011;10365;52.578;8.138;2022-07-15T02:33:00;11.27;;;3.83;;
20411;SDS011;10365;52.578;8.138;2022-07-15T02:35:26;9.60;;;3.80;;
20411;SDS011;10365;52.578;8.138;2022-07-15T02:37:52;12.27;;;3.83;;
20411;SDS011;10365;52.578;8.138;2022-07-15T02:40:17;12.50;;;3.38;;
20411;SDS011;10365;52.578;8.138;2022-07-15T02:42:50;15.25;;;3.63;;
20411;SDS011;10365;52.578;8.138;2022-07-15T02:45:20;13.57;;;3.40;;
20411;SDS011;10365;52.578;8.138;2022-07-15T02:47:46;10.85;;;3.28;;
20411;SDS011;10365;52.578;8.138;2022-07-15T02:50:13;11.00;;;3.08;;
20411;SDS011;10365;52.578;8.138;2022-07-15T02:52:39;10.95;;;2.97;;
20411;SDS011;10365;52.578;8.138;2022-07-15T02:55:05;10.57;;;3.10;;
20411;SDS011;10365;52.578;8.138;2022-07-15T02:57:30;9.73;;;3.10;;
20411;SDS011;10365;52.578;8.138;2022-07-15T02:59:56;6.63;;;2.90;;
20411;SDS011;10365;52.578;8.138;2022-07-15T03:02:21;8.32;;;2.72;;
20411;SDS011;10365;52.578;8.138;2022-07-15T03:04:47;10.57;;;3.35;;
20411;SDS011;10365;52.578;8.138;2022-07-15T03:07:13;11.35;;;2.78;;
20411;SDS011;10365;52.578;8.138;2022-07-15T03:09:39;13.57;;;3.10;;
20411;SDS011;10365;52.578;8.138;2022-07-15T03:12:04;9.18;;;2.50;;
20411;SDS011;10365;52.578;8.138;2022-07-15T03:14:30;13.38;;;2.83;;
20411;SDS011;10365;52.578;8.138;2022-07-15T03:16:55;15.40;;;3.55;;
20411;SDS011;10365;52.578;8.138;2022-07-15T03:19:21;8.40;;;2.85;;
20411;SDS011;10365;52.578;8.138;2022-07-15T03:21:47;9.98;;;2.42;;
20411;SDS011;10365;52.578;8.138;2022-07-15T03:24:13;8.13;;;2.83;;
20411;SDS011;10365;52.578;8.138;2022-07-15T03:26:41;7.65;;;2.50;;
20411;SDS011;10365;52.578;8.138;2022-07-15T03:29:06;5.80;;;2.13;;
20411;SDS011;10365;52.578;8.138;2022-07-15T03:31:32;8.32;;;2.13;;
20411;SDS011;10365;52.578;8.138;2022-07-15T03:33:59;10.10;;;2.45;;
20411;SDS011;10365;52.578;8.138;2022-07-15T03:36:26;14.57;;;2.85;;
20411;SDS011;10365;52.578;8.138;2022-07-15T03:38:52;12.45;;;2.47;;
20411;SDS011;10365;52.578;8.138;2022-07-15T03:41:18;7.13;;;2.20;;
20411;SDS011;10365;52.578;8.138;2022-07-15T03:43:44;7.90;;;2.20;;
20411;SDS011;10365;52.578;8.138;2022-07-15T03:46:11;12.43;;;2.53;;
20411;SDS011;10365;52.578;8.138;2022-07-15T03:48:41;5.28;;;2.10;;
20411;SDS011;10365;52.578;8.138;2022-07-15T03:51:07;8.32;;;1.80;;
20411;SDS011;10365;52.578;8.138;2022-07-15T03:53:32;10.27;;;2.47;;
20411;SDS011;10365;52.578;8.138;2022-07-15T03:55:58;11.77;;;2.20;;
20411;SDS011;10365;52.578;8.138;2022-07-15T03:58:23;6.60;;;2.00;;
20411;SDS011;10365;52.578;8.138;2022-07-15T04:00:49;9.70;;;2.58;;
20411;SDS011;10365;52.578;8.138;2022-07-15T04:03:14;7.50;;;1.58;;
20411;SDS011;10365;52.578;8.138;2022-07-15T04:05:41;9.32;;;2.50;;
20411;SDS011;10365;52.578;8.138;2022-07-15T04:08:07;8.27;;;1.83;;
20411;SDS011;10365;52.578;8.138;2022-07-15T04:10:32;11.38;;;2.13;;
20411;SDS011;10365;52.578;8.138;2022-07-15T04:12:57;7.55;;;2.78;;
20411;SDS011;10365;52.578;8.138;2022-07-15T04:15:24;7.72;;;1.90;;
20411;SDS011;10365;52.578;8.138;2022-07-15T04:17:50;7.70;;;1.95;;
20411;SDS011;10365;52.578;8.138;2022-07-15T04:20:19;11.77;;;1.92;;
20411;SDS011;10365;52.578;8.138;2022-07-15T04:22:47;8.27;;;2.08;;
20411;SDS011;10365;52.578;8.138;2022-07-15T04:25:14;10.88;;;2.00;;
20411;SDS011;10365;52.578;8.138;2022-07-15T04:27:40;14.02;;;2.05;;
20411;SDS011;10365;52.578;8.138;2022-07-15T04:30:05;4.72;;;1.85;;
20411;SDS011;10365;52.578;8.138;2022-07-15T04:32:40;5.95;;;1.60;;
20411;SDS011;10365;52.578;8.138;2022-07-15T04:35:06;5.88;;;2.20;;
20411;SDS011;10365;52.578;8.138;2022-07-15T04:37:31;15.18;;;2.30;;
20411;SDS011;10365;52.578;8.138;2022-07-15T04:39:58;6.88;;;1.85;;
20411;SDS011;10365;52.578;8.138;2022-07-15T04:42:23;5.88;;;1.95;;
20411;SDS011;10365;52.578;8.138;2022-07-15T04:44:50;9.55;;;1.73;;
20411;SDS011;10365;52.578;8.138;2022-07-15T04:47:17;12.23;;;2.13;;
20411;SDS011;10365;52.578;8.138;2022-07-15T04:49:48;6.25;;;1.50;;
20411;SDS011;10365;52.578;8.138;2022-07-15T04:52:33;10.32;;;1.73;;
20411;SDS011;10365;52.578;8.138;2022-07-15T04:54:59;7.70;;;1.95;;
20411;SDS011;10365;52.578;8.138;2022-07-15T04:57:24;7.03;;;2.00;;
20411;SDS011;10365;52.578;8.138;2022-07-15T04:59:50;3.90;;;1.33;;
20411;SDS011;10365;52.578;8.138;2022-07-15T05:02:16;6.40;;;1.08;;
20411;SDS011;10365;52.578;8.138;2022-07-15T05:04:45;9.38;;;1.70;;
20411;SDS011;10365;52.578;8.138;2022-07-15T05:07:12;7.35;;;1.52;;
20411;SDS011;10365;52.578;8.138;2022-07-15T05:09:40;5.53;;;1.48;;
20411;SDS011;10365;52.578;8.138;2022-07-15T05:12:05;9.88;;;2.10;;
20411;SDS011;10365;52.578;8.138;2022-07-15T05:14:38;10.90;;;2.10;;
20411;SDS011;10365;52.578;8.138;2022-07-15T05:17:06;7.97;;;1.33;;
20411;SDS011;10365;52.578;8.138;2022-07-15T05:19:32;5.57;;;1.23;;
20411;SDS011;10365;52.578;8.138;2022-07-15T05:21:58;5.90;;;1.48;;
20411;SDS011;10365;52.578;8.138;2022-07-15T05:24:23;8.25;;;1.20;;
20411;SDS011;10365;52.578;8.138;2022-07-15T05:26:49;4.55;;;1.77;;
20411;SDS011;10365;52.578;8.138;2022-07-15T05:29:14;5.10;;;1.30;;
20411;SDS011;10365;52.578;8.138;2022-07-15T05:31:40;6.18;;;1.50;;
20411;SDS011;10365;52.578;8.138;2022-07-15T05:34:07;7.45;;;1.65;;
20411;SDS011;10365;52.578;8.138;2022-07-15T05:36:35;11.60;;;2.15;;
20411;SDS011;10365;52.578;8.138;2022-07-15T05:39:01;6.82;;;1.35;;
20411;SDS011;10365;52.578;8.138;2022-07-15T05:41:27;9.23;;;1.90;;
20411;SDS011;10365;52.578;8.138;2022-07-15T05:43:52;8.27;;;1.60;;
20411;SDS011;10365;52.578;8.138;2022-07-15T05:46:18;4.68;;;1.45;;
20411;SDS011;10365;52.578;8.138;2022-07-15T05:48:49;5.07;;;1.52;;
20411;SDS011;10365;52.578;8.138;2022-07-15T05:51:14;6.88;;;1.60;;
20411;SDS011;10365;52.578;8.138;2022-07-15T05:53:41;7.10;;;1.58;;
20411;SDS011;10365;52.578;8.138;2022-07-15T05:56:07;7.10;;;1.80;;
20411;SDS011;10365;52.578;8.138;2022-07-15T05:58:33;10.07;;;1.50;;
20411;SDS011;10365;52.578;8.138;2022-07-15T06:00:58;5.63;;;1.20;;
20411;SDS011;10365;52.578;8.138;2022-07-15T06:03:29;5.75;;;1.48;;
20411;SDS011;10365;52.578;8.138;2022-07-15T06:05:55;9.85;;;1.33;;
20411;SDS011;10365;52.578;8.138;2022-07-15T06:08:20;5.20;;;1.27;;
20411;SDS011;10365;52.578;8.138;2022-07-15T06:10:46;6.47;;;1.50;;
20411;SDS011;10365;52.578;8.138;2022-07-15T06:13:11;4.60;;;1.40;;
20411;SDS011;10365;52.578;8.138;2022-07-15T06:15:37;8.02;;;1.35;;
20411;SDS011;10365;52.578;8.138;2022-07-15T06:18:03;8.20;;;1.10;;
20411;SDS011;10365;52.578;8.138;2022-07-15T06:20:31;7.55;;;1.02;;
20411;SDS011;10365;52.578;8.138;2022-07-15T06:22:58;9.25;;;1.15;;
20411;SDS011;10365;52.578;8.138;2022-07-15T06:25:24;8.20;;;2.28;;
20411;SDS011;10365;52.578;8.138;2022-07-15T06:27:51;5.57;;;1.27;;
20411;SDS011;10365;52.578;8.138;2022-07-15T06:30:16;6.38;;;1.35;;
20411;SDS011;10365;52.578;8.138;2022-07-15T06:32:42;5.60;;;0.93;;
20411;SDS011;10365;52.578;8.138;2022-07-15T06:35:07;6.60;;;1.20;;
20411;SDS011;10365;52.578;8.138;2022-07-15T06:37:33;4.85;;;1.15;;
20411;SDS011;10365;52.578;8.138;2022-07-15T06:39:58;4.95;;;0.95;;
20411;SDS011;10365;52.578;8.138;2022-07-15T06:42:24;8.60;;;1.10;;
20411;SDS011;10365;52.578;8.138;2022-07-15T06:45:01;8.15;;;1.30;;
20411;SDS011;10365;52.578;8.138;2022-07-15T06:47:27;6.47;;;1.00;;
20411;SDS011;10365;52.578;8.138;2022-07-15T06:49:56;5.00;;;0.90;;
20411;SDS011;10365;52.578;8.138;2022-07-15T06:52:21;4.05;;;0.88;;
20411;SDS011;10365;52.578;8.138;2022-07-15T06:54:48;5.78;;;1.02;;
20411;SDS011;10365;52.578;8.138;2022-07-15T06:57:13;5.15;;;1.20;;
20411;SDS011;10365;52.578;8.138;2022-07-15T06:59:41;2.38;;;0.95;;
20411;SDS011;10365;52.578;8.138;2022-07-15T07:02:07;5.18;;;1.13;;
20411;SDS011;10365;52.578;8.138;2022-07-15T07:04:33;4.07;;;0.70;;
20411;SDS011;10365;52.578;8.138;2022-07-15T07:06:58;5.93;;;0.80;;
20411;SDS011;10365;52.578;8.138;2022-07-15T07:09:24;6.65;;;0.95;;
20411;SDS011;10365;52.578;8.138;2022-07-15T07:11:51;5.40;;;0.73;;
20411;SDS011;10365;52.578;8.138;2022-07-15T07:14:17;6.82;;;0.77;;
20411;SDS011;10365;52.578;8.138;2022-07-15T07:16:43;4.30;;;1.25;;
20411;SDS011;10365;52.578;8.138;2022-07-15T07:19:08;3.15;;;0.60;;
20411;SDS011;10365;52.578;8.138;2022-07-15T07:21:34;1.92;;;0.63;;
20411;SDS011;10365;52.578;8.138;2022-07-15T07:23:59;4.53;;;0.80;;
20411;SDS011;10365;52.578;8.138;2022-07-15T07:26:25;3.53;;;0.82;;
20411;SDS011;10365;52.578;8.138;2022-07-15T07:28:52;6.20;;;0.63;;
20411;SDS011;10365;52.578;8.138;2022-07-15T07:31:17;3.25;;;0.90;;
20411;SDS011;10365;52.578;8.138;2022-07-15T07:33:42;5.82;;;0.90;;
20411;SDS011;10365;52.578;8.138;2022-07-15T07:36:08;7.10;;;0.98;;
20411;SDS011;10365;52.578;8.138;2022-07-15T07:38:34;3.45;;;0.75;;
20411;SDS011;10365;52.578;8.138;2022-07-15T07:40:59;5.65;;;1.05;;
20411;SDS011;10365;52.578;8.138;2022-07-15T07:43:25;4.53;;;1.20;;
20411;SDS011;10365;52.578;8.138;2022-07-15T07:45:50;5.05;;;0.90;;
20411;SDS011;10365;52.578;8.138;2022-07-15T07:48:16;4.65;;;0.90;;
20411;SDS011;10365;52.578;8.138;2022-07-15T07:50:42;8.13;;;0.80;;
20411;SDS011;10365;52.578;8.138;2022-07-15T07:53:07;4.72;;;0.93;;
20411;SDS011;10365;52.578;8.138;2022-07-15T07:55:32;3.03;;;0.57;;
20411;SDS011;10365;52.578;8.138;2022-07-15T07:57:58;4.60;;;0.68;;
20411;SDS011;10365;52.578;8.138;2022-07-15T08:00:24;3.83;;;0.68;;
20411;SDS011;10365;52.578;8.138;2022-07-15T08:02:55;3.83;;;0.52;;
20411;SDS011;10365;52.578;8.138;2022-07-15T08:05:20;1.67;;;0.40;;
20411;SDS011;10365;52.578;8.138;2022-07-15T08:07:46;2.95;;;0.63;;
20411;SDS011;10365;52.578;8.138;2022-07-15T08:10:12;3.80;;;0.63;;
20411;SDS011;10365;52.578;8.138;2022-07-15T08:12:38;4.65;;;0.50;;
20411;SDS011;10365;52.578;8.138;2022-07-15T08:15:04;2.92;;;0.80;;
20411;SDS011;10365;52.578;8.138;2022-07-15T08:17:30;4.95;;;0.65;;
20411;SDS011;10365;52.578;8.138;2022-07-15T08:19:55;4.53;;;0.93;;
20411;SDS011;10365;52.578;8.138;2022-07-15T08:22:21;3.63;;;0.73;;
20411;SDS011;10365;52.578;8.138;2022-07-15T08:24:46;2.88;;;0.57;;
20411;SDS011;10365;52.578;8.138;2022-07-15T08:27:12;4.85;;;0.70;;
20411;SDS011;10365;52.578;8.138;2022-07-15T08:29:37;4.28;;;0.60;;
20411;SDS011;10365;52.578;8.138;2022-07-15T08:32:03;2.25;;;1.02;;
20411;SDS011;10365;52.578;8.138;2022-07-15T08:34:29;4.55;;;0.60;;
20411;SDS011;10365;52.578;8.138;2022-07-15T08:36:55;4.57;;;0.57;;
20411;SDS011;10365;52.578;8.138;2022-07-15T08:39:20;3.78;;;0.52;;
20411;SDS011;10365;52.578;8.138;2022-07-15T08:41:46;1.23;;;0.47;;
20411;SDS011;10365;52.578;8.138;2022-07-15T08:44:11;1.73;;;0.47;;
20411;SDS011;10365;52.578;8.138;2022-07-15T08:46:36;2.65;;;0.60;;
20411;SDS011;10365;52.578;8.138;2022-07-15T08:49:10;1.15;;;0.38;;
20411;SDS011;10365;52.578;8.138;2022-07-15T08:51:37;1.35;;;0.28;;
20411;SDS011;10365;52.578;8.138;2022-07-15T08:54:06;3.70;;;0.50;;
20411;SDS011;10365;52.578;8.138;2022-07-15T08:56:32;2.20;;;0.40;;
20411;SDS011;10365;52.578;8.138;2022-07-15T08:58:59;2.15;;;0.38;;
20411;SDS011;10365;52.578;8.138;2022-07-15T09:01:25;1.92;;;0.20;;
20411;SDS011;10365;52.578;8.138;2022-07-15T09:03:50;5.22;;;0.63;;
20411;SDS011;10365;52.578;8.138;2022-07-15T09:08:57;3.20;;;0.45;;
20411;SDS011;10365;52.578;8.138;2022-07-15T09:11:29;2.15;;;0.47;;
20411;SDS011;10365;52.578;8.138;2022-07-15T09:13:54;2.72;;;0.30;;
20411;SDS011;10365;52.578;8.138;2022-07-15T09:16:19;1.20;;;0.40;;
20411;SDS011;10365;52.578;8.138;2022-07-15T09:18:46;6.93;;;0.43;;
20411;SDS011;10365;52.578;8.138;2022-07-15T09:21:17;6.20;;;0.60;;
20411;SDS011;10365;52.578;8.138;2022-07-15T09:23:43;2.80;;;0.30;;
20411;SDS011;10365;52.578;8.138;2022-07-15T09:28:49;0.60;;;0.30;;
20411;SDS011;10365;52.578;8.138;2022-07-15T09:34:12;1.17;;;0.45;;
20411;SDS011;10365;52.578;8.138;2022-07-15T09:36:37;1.45;;;0.40;;
20411;SDS011;10365;52.578;8.138;2022-07-15T09:39:05;2.88;;;0.43;;
20411;SDS011;10365;52.578;8.138;2022-07-15T09:41:33;0.93;;;0.20;;
20411;SDS011;10365;52.578;8.138;2022-07-15T09:44:00;0.85;;;0.20;;
20411;SDS011;10365;52.578;8.138;2022-07-15T09:49:07;3.15;;;0.95;;
20411;SDS011;10365;52.578;8.138;2022-07-15T09:51:42;3.72;;;0.40;;
20411;SDS011;10365;52.578;8.138;2022-07-15T09:54:07;2.50;;;0.30;;
20411;SDS011;10365;52.578;8.138;2022-07-15T09:56:34;2.63;;;0.43;;
20411;SDS011;10365;52.578;8.138;2022-07-15T09:58:59;4.25;;;0.43;;
20411;SDS011;10365;52.578;8.138;2022-07-15T10:01:28;2.30;;;0.50;;
20411;SDS011;10365;52.578;8.138;2022-07-15T10:03:53;1.95;;;0.30;;
20411;SDS011;10365;52.578;8.138;2022-07-15T10:06:19;3.00;;;0.45;;
20411;SDS011;10365;52.578;8.138;2022-07-15T10:08:46;1.73;;;0.50;;
20411;SDS011;10365;52.578;8.138;2022-07-15T10:11:12;1.52;;;0.40;;
20411;SDS011;10365;52.578;8.138;2022-07-15T10:13:49;3.10;;;0.28;;
20411;SDS011;10365;52.578;8.138;2022-07-15T10:18:58;2.67;;;0.30;;
20411;SDS011;10365;52.578;8.138;2022-07-15T10:26:55;1.45;;;0.25;;
20411;SDS011;10365;52.578;8.138;2022-07-15T10:29:24;0.55;;;0.20;;
20411;SDS011;10365;52.578;8.138;2022-07-15T10:31:59;4.40;;;0.30;;
20411;SDS011;10365;52.578;8.138;2022-07-15T10:34:42;3.47;;;0.85;;
20411;SDS011;10365;52.578;8.138;2022-07-15T10:37:09;3.55;;;0.40;;
20411;SDS011;10365;52.578;8.138;2022-07-15T10:39:51;1.55;;;0.25;;
20411;SDS011;10365;52.578;8.138;2022-07-15T10:42:17;1.65;;;0.20;;
20411;SDS011;10365;52.578;8.138;2022-07-15T10:47:24;3.38;;;0.35;;
20411;SDS011;10365;52.578;8.138;2022-07-15T10:49:50;3.55;;;0.30;;
20411;SDS011;10365;52.578;8.138;2022-07-15T10:52:26;2.63;;;0.32;;
20411;SDS011;10365;52.578;8.138;2022-07-15T10:57:21;1.00;;;0.28;;
20411;SDS011;10365;52.578;8.138;2022-07-15T10:59:47;3.00;;;0.30;;
20411;SDS011;10365;52.578;8.138;2022-07-15T11:02:14;3.40;;;0.32;;
20411;SDS011;10365;52.578;8.138;2022-07-15T11:04:41;1.85;;;0.20;;
20411;SDS011;10365;52.578;8.138;2022-07-15T11:12:09;1.38;;;0.20;;
20411;SDS011;10365;52.578;8.138;2022-07-15T11:17:05;1.48;;;0.20;;
20411;SDS011;10365;52.578;8.138;2022-07-15T11:19:31;3.60;;;0.32;;
20411;SDS011;10365;52.578;8.138;2022-07-15T11:21:57;2.03;;;0.40;;
20411;SDS011;10365;52.578;8.138;2022-07-15T11:24:23;3.38;;;0.32;;
20411;SDS011;10365;52.578;8.138;2022-07-15T11:26:50;1.38;;;0.30;;
20411;SDS011;10365;52.578;8.138;2022-07-15T11:29:15;1.10;;;0.25;;
20411;SDS011;10365;52.578;8.138;2022-07-15T11:31:40;1.35;;;0.20;;
20411;SDS011;10365;52.578;8.138;2022-07-15T11:34:07;1.65;;;0.30;;
20411;SDS011;10365;52.578;8.138;2022-07-15T11:36:33;1.35;;;0.28;;
20411;SDS011;10365;52.578;8.138;2022-07-15T11:38:58;3.95;;;0.40;;
20411;SDS011;10365;52.578;8.138;2022-07-15T11:41:24;0.98;;;0.20;;
20411;SDS011;10365;52.578;8.138;2022-07-15T11:44:09;2.22;;;0.50;;
20411;SDS011;10365;52.578;8.138;2022-07-15T11:46:53;1.88;;;0.60;;
20411;SDS011;10365;52.578;8.138;2022-07-15T11:51:50;1.63;;;0.60;;
20411;SDS011;10365;52.578;8.138;2022-07-15T11:54:17;1.83;;;0.25;;
20411;SDS011;10365;52.578;8.138;2022-07-15T11:56:44;1.70;;;0.30;;
20411;SDS011;10365;52.578;8.138;2022-07-15T11:59:17;0.95;;;0.30;;
20411;SDS011;10365;52.578;8.138;2022-07-15T12:01:42;1.40;;;0.15;;
20411;SDS011;10365;52.578;8.138;2022-07-15T12:04:08;0.20;;;0.10;;
20411;SDS011;10365;52.578;8.138;2022-07-15T12:06:35;1.13;;;0.17;;
20411;SDS011;10365;52.578;8.138;2022-07-15T12:09:05;2.97;;;0.55;;
20411;SDS011;10365;52.578;8.138;2022-07-15T12:11:37;0.85;;;0.20;;
20411;SDS011;10365;52.578;8.138;2022-07-15T12:14:04;1.40;;;0.28;;
20411;SDS011;10365;52.578;8.138;2022-07-15T12:18:57;0.68;;;0.30;;
20411;SDS011;10365;52.578;8.138;2022-07-15T12:21:23;1.35;;;0.28;;
20411;SDS011;10365;52.578;8.138;2022-07-15T12:23:59;0.93;;;0.20;;
20411;SDS011;10365;52.578;8.138;2022-07-15T12:26:26;1.77;;;0.30;;
20411;SDS011;10365;52.578;8.138;2022-07-15T12:28:59;1.40;;;0.30;;
20411;SDS011;10365;52.578;8.138;2022-07-15T12:31:27;3.72;;;0.45;;
20411;SDS011;10365;52.578;8.138;2022-07-15T12:33:53;1.45;;;0.20;;
20411;SDS011;10365;52.578;8.138;2022-07-15T12:36:20;0.88;;;0.40;;
20411;SDS011;10365;52.578;8.138;2022-07-15T12:39:01;2.33;;;0.30;;
20411;SDS011;10365;52.578;8.138;2022-07-15T12:41:26;1.13;;;0.30;;
20411;SDS011;10365;52.578;8.138;2022-07-15T12:43:54;1.00;;;0.20;;
20411;SDS011;10365;52.578;8.138;2022-07-15T12:46:20;1.88;;;0.40;;
20411;SDS011;10365;52.578;8.138;2022-07-15T12:49:05;1.88;;;0.32;;
20411;SDS011;10365;52.578;8.138;2022-07-15T12:51:31;1.27;;;0.30;;
20411;SDS011;10365;52.578;8.138;2022-07-15T12:54:02;3.08;;;0.40;;
20411;SDS011;10365;52.578;8.138;2022-07-15T12:56:28;1.98;;;0.20;;
20411;SDS011;10365;52.578;8.138;2022-07-15T12:58:53;1.27;;;0.20;;
20411;SDS011;10365;52.578;8.138;2022-07-15T13:01:19;0.80;;;0.20;;
20411;SDS011;10365;52.578;8.138;2022-07-15T13:03:44;2.45;;;0.25;;
20411;SDS011;10365;52.578;8.138;2022-07-15T13:06:10;1.10;;;0.10;;
20411;SDS011;10365;52.578;8.138;2022-07-15T13:08:37;0.65;;;0.13;;
20411;SDS011;10365;52.578;8.138;2022-07-15T13:11:04;0.73;;;0.20;;
20411;SDS011;10365;52.578;8.138;2022-07-15T13:13:34;1.35;;;0.22;;
20411;SDS011;10365;52.578;8.138;2022-07-15T13:16:00;1.05;;;0.35;;
20411;SDS011;10365;52.578;8.138;2022-07-15T13:18:27;1.08;;;0.30;;
20411;SDS011;10365;52.578;8.138;2022-07-15T13:20:53;1.20;;;0.20;;
20411;SDS011;10365;52.578;8.138;2022-07-15T13:23:18;3.08;;;0.30;;
20411;SDS011;10365;52.578;8.138;2022-07-15T13:25:44;3.10;;;0.30;;
20411;SDS011;10365;52.578;8.138;2022-07-15T13:28:10;6.20;;;0.40;;
20411;SDS011;10365;52.578;8.138;2022-07-15T13:30:36;4.13;;;0.50;;
20411;SDS011;10365;52.578;8.138;2022-07-15T13:33:01;5.72;;;0.60;;
20411;SDS011;10365;52.578;8.138;2022-07-15T13:35:27;3.03;;;0.40;;
20411;SDS011;10365;52.578;8.138;2022-07-15T13:37:52;1.90;;;0.30;;
20411;SDS011;10365;52.578;8.138;2022-07-15T13:40:18;0.60;;;0.30;;
20411;SDS011;10365;52.578;8.138;2022-07-15T13:42:43;4.32;;;0.40;;
20411;SDS011;10365;52.578;8.138;2022-07-15T13:45:10;2.47;;;0.35;;
20411;SDS011;10365;52.578;8.138;2022-07-15T13:47:37;1.50;;;0.35;;
20411;SDS011;10365;52.578;8.138;2022-07-15T13:50:02;1.88;;;0.30;;
20411;SDS011;10365;52.578;8.138;2022-07-15T13:52:47;1.70;;;0.40;;
20411;SDS011;10365;52.578;8.138;2022-07-15T13:55:13;5.15;;;0.57;;
20411;SDS011;10365;52.578;8.138;2022-07-15T13:57:40;2.53;;;0.40;;
20411;SDS011;10365;52.578;8.138;2022-07-15T14:00:06;3.63;;;0.30;;
20411;SDS011;10365;52.578;8.138;2022-07-15T14:02:32;0.63;;;0.28;;
20411;SDS011;10365;52.578;8.138;2022-07-15T14:04:58;2.88;;;0.30;;
20411;SDS011;10365;52.578;8.138;2022-07-15T14:07:23;0.85;;;0.20;;
20411;SDS011;10365;52.578;8.138;2022-07-15T14:09:49;4.90;;;0.52;;
20411;SDS011;10365;52.578;8.138;2022-07-15T14:12:14;1.63;;;0.28;;
20411;SDS011;10365;52.578;8.138;2022-07-15T14:14:41;0.88;;;0.20;;
20411;SDS011;10365;52.578;8.138;2022-07-15T14:17:06;0.80;;;0.30;;
20411;SDS011;10365;52.578;8.138;2022-07-15T14:19:31;2.08;;;0.20;;
20411;SDS011;10365;52.578;8.138;2022-07-15T14:21:57;0.70;;;0.30;;
20411;SDS011;10365;52.578;8.138;2022-07-15T14:24:22;1.20;;;0.20;;
20411;SDS011;10365;52.578;8.138;2022-07-15T14:26:47;1.02;;;0.22;;
20411;SDS011;10365;52.578;8.138;2022-07-15T14:29:13;1.98;;;0.57;;
20411;SDS011;10365;52.578;8.138;2022-07-15T14:31:38;2.00;;;0.30;;
20411;SDS011;10365;52.578;8.138;2022-07-15T14:34:04;1.38;;;0.30;;
20411;SDS011;10365;52.578;8.138;2022-07-15T14:36:29;1.20;;;0.28;;
20411;SDS011;10365;52.578;8.138;2022-07-15T14:38:55;0.30;;;0.20;;
20411;SDS011;10365;52.578;8.138;2022-07-15T14:41:20;1.95;;;0.30;;
20411;SDS011;10365;52.578;8.138;2022-07-15T14:43:46;2.33;;;0.38;;
20411;SDS011;10365;52.578;8.138;2022-07-15T14:46:12;3.35;;;0.43;;
20411;SDS011;10365;52.578;8.138;2022-07-15T14:48:37;3.08;;;0.47;;
20411;SDS011;10365;52.578;8.138;2022-07-15T14:51:03;2.28;;;0.38;;
20411;SDS011;10365;52.578;8.138;2022-07-15T14:53:28;2.15;;;0.32;;
20411;SDS011;10365;52.578;8.138;2022-07-15T14:55:53;1.20;;;0.28;;
20411;SDS011;10365;52.578;8.138;2022-07-15T14:58:19;0.43;;;0.22;;
20411;SDS011;10365;52.578;8.138;2022-07-15T15:00:44;1.38;;;0.40;;
20411;SDS011;10365;52.578;8.138;2022-07-15T15:03:10;1.08;;;0.28;;
20411;SDS011;10365;52.578;8.138;2022-07-15T15:05:35;1.80;;;0.30;;
20411;SDS011;10365;52.578;8.138;2022-07-15T15:08:01;2.65;;;0.47;;
20411;SDS011;10365;52.578;8.138;2022-07-15T15:10:26;3.17;;;0.70;;
20411;SDS011;10365;52.578;8.138;2022-07-15T15:12:52;1.17;;;0.30;;
20411;SDS011;10365;52.578;8.138;2022-07-15T15:15:17;1.42;;;0.40;;
20411;SDS011;10365;52.578;8.138;2022-07-15T15:17:42;3.22;;;0.38;;
20411;SDS011;10365;52.578;8.138;2022-07-15T15:20:09;2.97;;;0.30;;